Terminal Aerodrome Forecast
Issued by NWS

Home | Current Version | Previous Version | Text Only | Print | Product List | Glossary On
Versions: 1 2 3 4 5 6 7 8 9 10 11 12 13 14
000
FTUS45 KFGZ 252336
TAFPGA
TAF
KPGA 252336Z 2600/2624 VRB06KT P6SM SCT100
      TEMPO 2600/2602 VRB15G25KT 6SM SHRA BKN060=

USA.gov is the U.S. government's official web portal to all federal, state and local government web resources and services.